Time;durP1;ratioP1;P1;durP2;ratioP2;P2;SDS_P1;SDS_P2;PMS_P1;PMS_P2;Temp;Humidity;BMP_temperature;BMP_pressure;BME280_temperature;BME280_humidity;BME280_pressure;Samples;Min_cycle;Max_cycle;Signal;HPM_P1;HPM_P2
2022/06/26 00:01:26;;;;;;;18.27;6.85;;;;;;;;;;5078750;28;20036;-67
2022/06/26 00:03:51;;;;;;;13.00;7.68;;;;;;;;;;5073514;28;20033;-66
2022/06/26 00:06:17;;;;;;;14.25;7.57;;;;;;;;;;5075813;28;20135;-66
2022/06/26 00:08:42;;;;;;;12.15;8.23;;;;;;;;;;5089847;28;20020;-67
2022/06/26 00:11:07;;;;;;;10.98;7.63;;;;;;;;;;5086830;28;20024;-67
2022/06/26 00:13:32;;;;;;;13.32;8.98;;;;;;;;;;5089793;28;20024;-66
2022/06/26 00:15:58;;;;;;;11.00;7.05;;;;;;;;;;5090287;28;20357;-66
2022/06/26 00:18:23;;;;;;;13.10;7.15;;;;;;;;;;5070527;28;20143;-66
2022/06/26 00:20:48;;;;;;;14.60;7.57;;;;;;;;;;5076958;28;20024;-66
2022/06/26 00:23:14;;;;;;;10.65;8.05;;;;;;;;;;5072174;28;20869;-66
2022/06/26 00:25:39;;;;;;;11.50;7.43;;;;;;;;;;5082647;28;20061;-66
2022/06/26 00:28:04;;;;;;;11.70;8.20;;;;;;;;;;5077062;28;20105;-66
2022/06/26 00:30:29;;;;;;;14.90;8.73;;;;;;;;;;5090830;28;20044;-66
2022/06/26 00:32:55;;;;;;;13.50;8.57;;;;;;;;;;5071794;28;20024;-66
2022/06/26 00:35:20;;;;;;;13.55;8.65;;;;;;;;;;5070200;28;20047;-66
2022/06/26 00:37:46;;;;;;;13.00;9.13;;;;;;;;;;5073929;28;21282;-66
2022/06/26 00:40:12;;;;;;;13.63;8.88;;;;;;;;;;5076367;28;20028;-66
2022/06/26 00:42:37;;;;;;;13.45;10.02;;;;;;;;;;5071682;28;20035;-66
2022/06/26 00:45:03;;;;;;;13.93;9.88;;;;;;;;;;5068884;28;20023;-66
2022/06/26 00:47:30;;;;;;;12.20;8.77;;;;;;;;;;5075772;28;20020;-66
2022/06/26 00:49:56;;;;;;;18.10;10.60;;;;;;;;;;5072721;28;21415;-66
2022/06/26 00:52:21;;;;;;;15.93;9.93;;;;;;;;;;5074535;28;20035;-66
2022/06/26 00:54:48;;;;;;;15.50;9.70;;;;;;;;;;5071599;28;20444;-66
2022/06/26 00:57:13;;;;;;;18.20;9.65;;;;;;;;;;5083530;28;20136;-66
2022/06/26 00:59:39;;;;;;;11.75;9.35;;;;;;;;;;5072145;28;20404;-66
2022/06/26 01:02:04;;;;;;;13.25;9.52;;;;;;;;;;5086645;28;20475;-66
2022/06/26 01:04:29;;;;;;;16.05;10.60;;;;;;;;;;5080351;28;20035;-67
2022/06/26 01:06:55;;;;;;;12.40;9.88;;;;;;;;;;5083096;28;20013;-66
2022/06/26 01:09:20;;;;;;;15.52;9.77;;;;;;;;;;5074807;28;20017;-66
2022/06/26 01:11:45;;;;;;;16.95;10.95;;;;;;;;;;5072785;28;20013;-66
2022/06/26 01:14:11;;;;;;;13.30;9.90;;;;;;;;;;5075936;28;20073;-66
2022/06/26 01:16:37;;;;;;;15.73;11.00;;;;;;;;;;5091804;28;20016;-66
2022/06/26 01:19:04;;;;;;;13.25;9.25;;;;;;;;;;5082338;28;20044;-66
2022/06/26 01:21:30;;;;;;;12.15;8.45;;;;;;;;;;5091912;28;20150;-66
2022/06/26 01:23:55;;;;;;;14.10;8.57;;;;;;;;;;5089883;28;20106;-66
2022/06/26 01:26:21;;;;;;;15.73;8.18;;;;;;;;;;5080230;28;20016;-66
2022/06/26 01:28:46;;;;;;;11.20;8.73;;;;;;;;;;5093673;28;20110;-66
2022/06/26 01:31:11;;;;;;;14.45;10.23;;;;;;;;;;5079942;28;20104;-66
2022/06/26 01:33:37;;;;;;;15.60;10.30;;;;;;;;;;5078898;28;20089;-66
2022/06/26 01:36:02;;;;;;;15.48;10.57;;;;;;;;;;5076956;28;20361;-66
2022/06/26 01:38:28;;;;;;;20.70;10.82;;;;;;;;;;5064262;28;20035;-66
2022/06/26 01:40:55;;;;;;;43.67;11.98;;;;;;;;;;5067551;28;20028;-66
2022/06/26 01:43:25;;;;;;;17.80;11.80;;;;;;;;;;5069006;28;20107;-66
2022/06/26 01:45:52;;;;;;;18.58;10.90;;;;;;;;;;5062206;28;20654;-66
2022/06/26 01:48:17;;;;;;;17.13;11.20;;;;;;;;;;5066052;28;20024;-66
2022/06/26 01:50:43;;;;;;;15.07;10.73;;;;;;;;;;5072540;28;20039;-66
2022/06/26 01:53:09;;;;;;;22.42;11.25;;;;;;;;;;5062983;28;20077;-66
2022/06/26 01:55:34;;;;;;;20.90;10.27;;;;;;;;;;5078093;28;20020;-66
2022/06/26 01:58:02;;;;;;;19.20;11.15;;;;;;;;;;5063717;28;20037;-66
2022/06/26 02:00:29;;;;;;;15.27;10.85;;;;;;;;;;5077871;28;20028;-66
2022/06/26 02:02:55;;;;;;;15.13;10.88;;;;;;;;;;5070812;28;20052;-66
2022/06/26 02:05:20;;;;;;;16.00;11.85;;;;;;;;;;5062474;28;20615;-66
2022/06/26 02:07:45;;;;;;;20.65;11.50;;;;;;;;;;5066192;28;20035;-66
2022/06/26 02:15:38;;;;;;;15.30;10.60;;;;;;;;;;5067815;28;20145;-66
2022/06/26 02:18:03;;;;;;;18.23;10.07;;;;;;;;;;5072409;28;20078;-66
2022/06/26 02:20:29;;;;;;;15.10;10.60;;;;;;;;;;5083485;28;20020;-66
2022/06/26 02:22:54;;;;;;;15.65;9.25;;;;;;;;;;5084485;28;20020;-66
2022/06/26 02:25:19;;;;;;;11.50;8.45;;;;;;;;;;5075342;28;20114;-66
2022/06/26 02:27:45;;;;;;;12.35;9.13;;;;;;;;;;5068917;28;20047;-66
2022/06/26 02:30:11;;;;;;;17.00;10.50;;;;;;;;;;5076737;28;20058;-66
2022/06/26 02:32:36;;;;;;;15.23;10.15;;;;;;;;;;5079688;28;20032;-66
2022/06/26 02:35:01;;;;;;;12.70;10.55;;;;;;;;;;5074146;28;20036;-66
2022/06/26 02:37:26;;;;;;;16.83;12.93;;;;;;;;;;5077017;28;20111;-66
2022/06/26 02:39:51;;;;;;;21.00;13.13;;;;;;;;;;5076226;28;20046;-66
2022/06/26 02:42:17;;;;;;;14.43;11.95;;;;;;;;;;5074010;28;20050;-66
2022/06/26 02:44:42;;;;;;;15.82;11.80;;;;;;;;;;5080991;28;20379;-66
2022/06/26 02:47:07;;;;;;;17.23;11.82;;;;;;;;;;5085964;28;20119;-66
2022/06/26 02:49:33;;;;;;;17.00;11.02;;;;;;;;;;5084802;28;20504;-66
2022/06/26 02:51:58;;;;;;;15.25;10.85;;;;;;;;;;5082833;28;20043;-66
2022/06/26 02:54:23;;;;;;;15.93;10.90;;;;;;;;;;5079269;28;20098;-66
2022/06/26 02:56:48;;;;;;;14.30;9.73;;;;;;;;;;5080742;28;20035;-66
2022/06/26 02:59:13;;;;;;;16.83;9.77;;;;;;;;;;5083200;28;20691;-66
2022/06/26 03:01:39;;;;;;;14.88;10.32;;;;;;;;;;5074194;28;20453;-66
2022/06/26 03:04:05;;;;;;;15.45;10.30;;;;;;;;;;5076592;28;20032;-66
2022/06/26 03:06:30;;;;;;;16.85;11.20;;;;;;;;;;5074367;28;20074;-65
2022/06/26 03:08:55;;;;;;;15.57;11.38;;;;;;;;;;5077240;28;20027;-66
2022/06/26 03:11:20;;;;;;;13.82;10.70;;;;;;;;;;5074181;28;20074;-66
2022/06/26 03:13:46;;;;;;;16.13;11.20;;;;;;;;;;5073111;28;20043;-65
2022/06/26 03:16:11;;;;;;;13.60;10.90;;;;;;;;;;5078510;28;20024;-66
2022/06/26 03:18:36;;;;;;;13.50;9.60;;;;;;;;;;5074358;28;20033;-66
2022/06/26 03:21:01;;;;;;;14.23;10.20;;;;;;;;;;5077542;28;20024;-66
2022/06/26 03:26:12;;;;;;;14.25;11.18;;;;;;;;;;5073498;28;20093;-66
2022/06/26 03:28:37;;;;;;;16.77;11.02;;;;;;;;;;5079929;28;20487;-66
2022/06/26 03:31:02;;;;;;;16.08;11.82;;;;;;;;;;5077025;28;20028;-65
2022/06/26 03:33:27;;;;;;;11.73;9.98;;;;;;;;;;5079029;28;20228;-65
2022/06/26 03:35:53;;;;;;;11.52;10.07;;;;;;;;;;5084269;28;20028;-66
2022/06/26 03:38:18;;;;;;;15.52;11.77;;;;;;;;;;5073326;28;20063;-65
2022/06/26 03:40:43;;;;;;;15.65;12.68;;;;;;;;;;5082287;28;20112;-65
2022/06/26 03:43:11;;;;;;;18.40;12.70;;;;;;;;;;5071141;28;20032;-66
2022/06/26 03:45:36;;;;;;;18.33;12.35;;;;;;;;;;5080724;28;20028;-66
2022/06/26 03:48:01;;;;;;;17.75;12.80;;;;;;;;;;5074915;28;20095;-66
2022/06/26 03:50:27;;;;;;;17.92;12.63;;;;;;;;;;5077335;28;20047;-66
2022/06/26 03:52:52;;;;;;;14.23;11.75;;;;;;;;;;5078238;28;20060;-66
2022/06/26 03:55:17;;;;;;;12.55;11.10;;;;;;;;;;5077008;28;20024;-66
2022/06/26 03:57:42;;;;;;;16.75;11.05;;;;;;;;;;5081095;28;20341;-66
2022/06/26 04:00:08;;;;;;;13.00;11.25;;;;;;;;;;5073660;28;20099;-65
2022/06/26 04:02:33;;;;;;;16.83;11.73;;;;;;;;;;5069636;28;20671;-65
2022/06/26 04:04:58;;;;;;;15.50;10.73;;;;;;;;;;5070801;28;20020;-66
2022/06/26 04:07:23;;;;;;;14.52;10.70;;;;;;;;;;5075499;28;20036;-66
2022/06/26 04:09:48;;;;;;;12.43;10.13;;;;;;;;;;5075544;28;20118;-66
2022/06/26 04:12:14;;;;;;;13.82;9.73;;;;;;;;;;5075470;28;20115;-66
2022/06/26 04:14:39;;;;;;;13.80;9.45;;;;;;;;;;5071505;28;20033;-66
2022/06/26 04:17:04;;;;;;;14.00;9.82;;;;;;;;;;5077969;28;20066;-66
2022/06/26 04:19:30;;;;;;;11.73;9.40;;;;;;;;;;5080991;28;20030;-66
2022/06/26 04:21:55;;;;;;;14.02;9.38;;;;;;;;;;5073493;28;20416;-66
2022/06/26 04:24:20;;;;;;;11.63;9.00;;;;;;;;;;5070805;28;20387;-66
2022/06/26 04:26:45;;;;;;;14.35;9.85;;;;;;;;;;5075971;28;20485;-66
2022/06/26 04:29:11;;;;;;;11.93;8.73;;;;;;;;;;5078387;28;20411;-66
2022/06/26 04:31:36;;;;;;;10.77;9.00;;;;;;;;;;5076878;28;20087;-66
2022/06/26 04:34:01;;;;;;;12.68;8.82;;;;;;;;;;5072848;28;20036;-66
2022/06/26 04:36:26;;;;;;;11.10;8.00;;;;;;;;;;5080005;28;20119;-66
2022/06/26 04:38:51;;;;;;;8.75;7.70;;;;;;;;;;5072448;28;20120;-66
2022/06/26 04:41:32;;;;;;;12.38;8.25;;;;;;;;;;5076247;28;20048;-66
2022/06/26 04:43:57;;;;;;;10.18;7.90;;;;;;;;;;5074559;28;20376;-66
2022/06/26 04:46:22;;;;;;;10.63;8.25;;;;;;;;;;5077913;28;20020;-67
2022/06/26 04:48:47;;;;;;;12.23;8.77;;;;;;;;;;5080022;28;20373;-66
2022/06/26 04:51:13;;;;;;;11.90;8.27;;;;;;;;;;5075425;28;20036;-66
2022/06/26 04:53:38;;;;;;;10.82;8.00;;;;;;;;;;5077384;28;20024;-67
2022/06/26 04:56:04;;;;;;;11.52;7.72;;;;;;;;;;5080954;28;21205;-67
2022/06/26 04:58:29;;;;;;;10.88;7.90;;;;;;;;;;5082599;28;20036;-67
2022/06/26 05:00:55;;;;;;;13.35;7.93;;;;;;;;;;5076265;28;20484;-67
2022/06/26 05:03:20;;;;;;;12.77;8.65;;;;;;;;;;5075071;28;20043;-66
2022/06/26 05:05:45;;;;;;;12.68;7.97;;;;;;;;;;5075803;28;20374;-67
2022/06/26 05:08:10;;;;;;;11.02;7.97;;;;;;;;;;5080069;28;20199;-67
2022/06/26 05:10:35;;;;;;;10.27;7.75;;;;;;;;;;5070444;28;20121;-67
2022/06/26 05:13:01;;;;;;;9.93;7.57;;;;;;;;;;5076917;28;20451;-67
2022/06/26 05:15:26;;;;;;;11.23;7.40;;;;;;;;;;5077585;28;20463;-67
2022/06/26 05:17:52;;;;;;;9.07;6.75;;;;;;;;;;5081172;28;20751;-67
2022/06/26 05:20:17;;;;;;;12.13;7.20;;;;;;;;;;5072503;28;20016;-67
2022/06/26 05:22:42;;;;;;;8.55;6.90;;;;;;;;;;5071717;28;20020;-67
2022/06/26 05:25:07;;;;;;;11.20;6.40;;;;;;;;;;5079193;28;20025;-67
2022/06/26 05:27:33;;;;;;;9.68;6.60;;;;;;;;;;5080576;28;20020;-67
2022/06/26 05:29:58;;;;;;;9.27;6.60;;;;;;;;;;5077362;28;20099;-66
2022/06/26 05:32:23;;;;;;;11.88;6.80;;;;;;;;;;5081273;28;20055;-66
2022/06/26 05:34:48;;;;;;;8.98;6.88;;;;;;;;;;5077589;28;20116;-66
2022/06/26 05:37:13;;;;;;;12.82;7.00;;;;;;;;;;5075178;28;20081;-67
2022/06/26 05:39:39;;;;;;;10.30;6.93;;;;;;;;;;5083776;28;20013;-67
2022/06/26 05:42:04;;;;;;;11.95;6.90;;;;;;;;;;5080247;28;20115;-67
2022/06/26 05:44:29;;;;;;;12.90;7.18;;;;;;;;;;5083640;28;20119;-66
2022/06/26 05:46:54;;;;;;;9.48;7.13;;;;;;;;;;5074361;28;20100;-66
2022/06/26 05:49:20;;;;;;;11.30;6.95;;;;;;;;;;5076715;28;20040;-67
2022/06/26 05:51:45;;;;;;;11.15;7.60;;;;;;;;;;5083282;28;20059;-67
2022/06/26 05:54:10;;;;;;;10.82;7.25;;;;;;;;;;5086070;28;20025;-66
2022/06/26 05:56:35;;;;;;;9.20;7.68;;;;;;;;;;5083087;28;20047;-67
2022/06/26 05:59:01;;;;;;;11.57;7.47;;;;;;;;;;5081776;28;20119;-66
2022/06/26 06:01:26;;;;;;;11.45;8.27;;;;;;;;;;5076435;28;20056;-66
2022/06/26 06:03:51;;;;;;;12.23;8.20;;;;;;;;;;5078572;28;20088;-66
2022/06/26 06:06:16;;;;;;;12.75;8.10;;;;;;;;;;5075825;28;20025;-66
2022/06/26 06:08:42;;;;;;;13.05;8.40;;;;;;;;;;5073939;28;20046;-66
2022/06/26 06:11:07;;;;;;;11.40;8.27;;;;;;;;;;5087620;28;20024;-66
2022/06/26 06:13:32;;;;;;;13.15;8.45;;;;;;;;;;5092808;28;20125;-66
2022/06/26 06:15:57;;;;;;;12.45;8.90;;;;;;;;;;5074367;28;20024;-66
2022/06/26 06:18:22;;;;;;;11.13;8.52;;;;;;;;;;5072541;28;20115;-66
2022/06/26 06:20:50;;;;;;;10.63;8.18;;;;;;;;;;5077001;28;20042;-66
2022/06/26 06:23:15;;;;;;;12.40;9.10;;;;;;;;;;5082013;28;20020;-66
2022/06/26 06:25:41;;;;;;;12.10;9.00;;;;;;;;;;5074412;28;20024;-66
2022/06/26 06:28:06;;;;;;;12.25;9.05;;;;;;;;;;5081327;28;20031;-67
2022/06/26 06:30:31;;;;;;;9.70;8.10;;;;;;;;;;5073656;28;20119;-67
2022/06/26 06:32:56;;;;;;;12.15;8.70;;;;;;;;;;5077328;28;20059;-67
2022/06/26 06:35:22;;;;;;;13.35;8.43;;;;;;;;;;5077347;28;20020;-66
2022/06/26 06:37:47;;;;;;;9.45;7.35;;;;;;;;;;5074558;28;20030;-66
2022/06/26 06:40:14;;;;;;;13.20;7.35;;;;;;;;;;5082197;28;20038;-66
2022/06/26 06:42:39;;;;;;;12.13;6.80;;;;;;;;;;5075390;28;20464;-67
2022/06/26 06:45:05;;;;;;;9.10;6.25;;;;;;;;;;5074356;28;20088;-67
2022/06/26 06:47:30;;;;;;;8.95;6.10;;;;;;;;;;5070399;28;20052;-67
2022/06/26 06:49:55;;;;;;;8.52;6.30;;;;;;;;;;5074688;28;20380;-67
2022/06/26 06:52:20;;;;;;;7.72;5.47;;;;;;;;;;5074400;28;20871;-67
2022/06/26 06:54:46;;;;;;;8.48;5.57;;;;;;;;;;5077705;28;21179;-67
2022/06/26 06:57:11;;;;;;;9.82;6.00;;;;;;;;;;5074557;28;20016;-67
2022/06/26 06:59:36;;;;;;;8.85;6.05;;;;;;;;;;5077989;28;20031;-67
2022/06/26 07:02:02;;;;;;;9.43;6.65;;;;;;;;;;5074292;28;20024;-67
2022/06/26 07:04:27;;;;;;;8.25;5.97;;;;;;;;;;5078517;28;20499;-67
2022/06/26 07:06:52;;;;;;;8.32;5.38;;;;;;;;;;5082510;28;20413;-67
2022/06/26 07:09:17;;;;;;;8.00;5.30;;;;;;;;;;5084388;28;20158;-67
2022/06/26 07:11:43;;;;;;;10.75;6.15;;;;;;;;;;5078698;28;20031;-67
2022/06/26 07:14:08;;;;;;;8.27;5.95;;;;;;;;;;5077573;28;20502;-66
2022/06/26 07:16:33;;;;;;;11.68;6.72;;;;;;;;;;5078331;28;20396;-66
2022/06/26 07:18:59;;;;;;;8.27;6.25;;;;;;;;;;5072735;28;20039;-67
2022/06/26 07:21:24;;;;;;;9.35;7.05;;;;;;;;;;5080947;28;20120;-66
2022/06/26 07:23:49;;;;;;;10.23;6.18;;;;;;;;;;5080011;28;20485;-66
2022/06/26 07:26:15;;;;;;;9.73;6.10;;;;;;;;;;5073453;28;20028;-66
2022/06/26 07:28:40;;;;;;;8.70;6.20;;;;;;;;;;5079855;28;20035;-66
2022/06/26 07:31:05;;;;;;;10.10;6.70;;;;;;;;;;5071421;28;20099;-66
2022/06/26 07:36:15;;;;;;;9.02;5.75;;;;;;;;;;5075455;28;20080;-66
2022/06/26 07:38:40;;;;;;;9.23;6.40;;;;;;;;;;5072163;28;20429;-66
2022/06/26 07:41:05;;;;;;;8.13;6.07;;;;;;;;;;5074894;28;20032;-66
2022/06/26 07:43:31;;;;;;;10.38;6.65;;;;;;;;;;5068107;28;20084;-66
2022/06/26 07:45:56;;;;;;;10.73;7.10;;;;;;;;;;5073164;28;20118;-66
2022/06/26 07:48:21;;;;;;;7.90;6.10;;;;;;;;;;5070952;28;20035;-66
2022/06/26 07:50:47;;;;;;;10.70;6.85;;;;;;;;;;5075275;28;20032;-67
2022/06/26 07:53:13;;;;;;;7.07;4.85;;;;;;;;;;5068092;28;20086;-67
2022/06/26 07:55:38;;;;;;;8.68;4.68;;;;;;;;;;5077017;28;20542;-67
2022/06/26 07:58:04;;;;;;;7.18;4.63;;;;;;;;;;5083934;28;20039;-67
2022/06/26 08:00:29;;;;;;;7.13;4.70;;;;;;;;;;5080209;28;20028;-67
2022/06/26 08:02:54;;;;;;;7.00;5.35;;;;;;;;;;5069083;28;20143;-67
2022/06/26 08:05:19;;;;;;;9.63;5.45;;;;;;;;;;5074513;28;20063;-67
2022/06/26 08:07:45;;;;;;;8.25;4.95;;;;;;;;;;5071700;28;20042;-67
2022/06/26 08:10:10;;;;;;;5.78;4.30;;;;;;;;;;5076044;28;20081;-67
2022/06/26 08:12:35;;;;;;;6.03;4.30;;;;;;;;;;5077324;28;20032;-67
2022/06/26 08:15:01;;;;;;;6.70;4.72;;;;;;;;;;5075584;28;20020;-66
2022/06/26 08:17:26;;;;;;;6.00;4.30;;;;;;;;;;5068395;28;20028;-66
2022/06/26 08:19:51;;;;;;;6.25;4.60;;;;;;;;;;5072602;28;20028;-66
2022/06/26 08:22:16;;;;;;;7.82;4.10;;;;;;;;;;5072791;28;21988;-66
2022/06/26 08:24:42;;;;;;;8.30;3.90;;;;;;;;;;5068789;28;20096;-67
2022/06/26 08:27:07;;;;;;;4.88;3.40;;;;;;;;;;5079765;28;20020;-66
2022/06/26 08:29:33;;;;;;;5.82;3.55;;;;;;;;;;5071166;28;20031;-66
2022/06/26 08:31:58;;;;;;;5.22;3.05;;;;;;;;;;5078655;28;20026;-66
2022/06/26 08:34:23;;;;;;;6.07;3.10;;;;;;;;;;5083928;28;20127;-66
2022/06/26 08:36:49;;;;;;;4.40;2.58;;;;;;;;;;5077107;28;20045;-66
2022/06/26 08:39:14;;;;;;;4.63;2.50;;;;;;;;;;5082155;28;20027;-66
2022/06/26 08:41:41;;;;;;;4.35;2.60;;;;;;;;;;5074767;28;20025;-67
2022/06/26 08:44:07;;;;;;;3.88;2.30;;;;;;;;;;5071453;28;20021;-67
2022/06/26 08:46:35;;;;;;;3.70;1.88;;;;;;;;;;5076195;28;20012;-67
2022/06/26 08:49:01;;;;;;;4.35;1.58;;;;;;;;;;5080836;28;20115;-66
2022/06/26 08:51:27;;;;;;;3.58;1.20;;;;;;;;;;5074643;28;20589;-67
2022/06/26 08:53:53;;;;;;;2.53;1.50;;;;;;;;;;5079859;28;20032;-67
2022/06/26 08:56:18;;;;;;;3.83;1.60;;;;;;;;;;5071336;28;20484;-67
2022/06/26 08:58:43;;;;;;;3.45;1.70;;;;;;;;;;5075990;28;20028;-66
2022/06/26 09:01:09;;;;;;;3.95;1.90;;;;;;;;;;5074704;28;20464;-66
2022/06/26 09:03:34;;;;;;;8.35;1.80;;;;;;;;;;5088353;28;20020;-67
2022/06/26 09:06:00;;;;;;;3.95;2.00;;;;;;;;;;5075780;28;20039;-67
2022/06/26 09:08:28;;;;;;;3.08;1.70;;;;;;;;;;5075660;28;20082;-66
2022/06/26 09:10:54;;;;;;;5.20;1.70;;;;;;;;;;5075003;28;20051;-67
2022/06/26 09:13:19;;;;;;;3.78;1.73;;;;;;;;;;5074885;28;20056;-66
2022/06/26 09:15:45;;;;;;;3.75;1.70;;;;;;;;;;5075854;28;20035;-66
2022/06/26 09:18:11;;;;;;;3.80;1.88;;;;;;;;;;5078126;28;20127;-66
2022/06/26 09:20:37;;;;;;;3.78;2.00;;;;;;;;;;5073143;28;20028;-66
2022/06/26 09:23:03;;;;;;;4.35;2.20;;;;;;;;;;5073399;28;20020;-66
2022/06/26 09:25:34;;;;;;;4.63;2.03;;;;;;;;;;5077775;28;20031;-66
2022/06/26 09:28:09;;;;;;;4.72;1.48;;;;;;;;;;5078062;28;20077;-66
2022/06/26 09:30:44;;;;;;;2.47;1.50;;;;;;;;;;5074658;28;20571;-66
2022/06/26 09:33:10;;;;;;;2.72;1.40;;;;;;;;;;5069971;28;20025;-67
2022/06/26 09:35:35;;;;;;;3.25;1.27;;;;;;;;;;5078485;28;20036;-66
2022/06/26 09:38:00;;;;;;;2.65;1.20;;;;;;;;;;5089251;28;20035;-67
2022/06/26 09:40:27;;;;;;;3.58;1.30;;;;;;;;;;5076813;28;20020;-66
2022/06/26 09:42:52;;;;;;;3.63;1.50;;;;;;;;;;5087977;28;20111;-67
2022/06/26 09:45:17;;;;;;;2.42;1.30;;;;;;;;;;5074962;28;20535;-66
2022/06/26 09:47:43;;;;;;;2.97;1.40;;;;;;;;;;5084015;28;20255;-66
2022/06/26 09:50:09;;;;;;;2.85;1.30;;;;;;;;;;5073410;28;20451;-66
2022/06/26 09:52:34;;;;;;;2.78;1.30;;;;;;;;;;5080877;28;20028;-67
2022/06/26 09:55:00;;;;;;;3.00;1.35;;;;;;;;;;5072798;28;20385;-66
2022/06/26 09:57:26;;;;;;;4.10;1.30;;;;;;;;;;5077814;28;20028;-67
2022/06/26 09:59:52;;;;;;;2.03;1.30;;;;;;;;;;5075784;28;20050;-67
2022/06/26 10:07:51;;;;;;;2.83;1.35;;;;;;;;;;5083412;28;20476;-66
2022/06/26 10:10:17;;;;;;;2.10;1.10;;;;;;;;;;5074458;28;20064;-67
2022/06/26 10:12:42;;;;;;;3.33;1.20;;;;;;;;;;5078735;28;20151;-67
2022/06/26 10:15:09;;;;;;;2.75;1.15;;;;;;;;;;5076932;28;20644;-66
2022/06/26 10:18:01;;;;;;;2.15;1.10;;;;;;;;;;5073135;28;20438;-67
2022/06/26 10:20:28;;;;;;;2.17;1.23;;;;;;;;;;5055678;28;20127;-67
2022/06/26 10:22:53;;;;;;;3.90;1.40;;;;;;;;;;5069226;28;20074;-66
2022/06/26 10:25:21;;;;;;;2.72;1.30;;;;;;;;;;5069635;28;20025;-67
2022/06/26 10:27:47;;;;;;;2.50;1.13;;;;;;;;;;5085767;28;20051;-67
2022/06/26 10:30:14;;;;;;;2.83;1.40;;;;;;;;;;5080738;28;20481;-67
2022/06/26 10:32:40;;;;;;;4.65;1.10;;;;;;;;;;5085823;28;20056;-67
2022/06/26 10:35:06;;;;;;;2.80;1.15;;;;;;;;;;5082339;28;20113;-67
2022/06/26 10:37:43;;;;;;;3.17;1.20;;;;;;;;;;5080404;28;20021;-67
2022/06/26 10:43:04;;;;;;;2.13;1.20;;;;;;;;;;5078894;28;20059;-66
2022/06/26 10:45:35;;;;;;;4.07;1.20;;;;;;;;;;5078846;28;20549;-67
2022/06/26 10:48:01;;;;;;;2.92;1.33;;;;;;;;;;5072316;28;20039;-66
2022/06/26 10:50:31;;;;;;;2.47;1.27;;;;;;;;;;5074714;28;20029;-66
2022/06/26 10:53:20;;;;;;;3.92;1.58;;;;;;;;;;5068963;28;20032;-67
2022/06/26 10:55:47;;;;;;;3.42;1.70;;;;;;;;;;5066847;28;20036;-67
2022/06/26 10:58:18;;;;;;;3.22;1.63;;;;;;;;;;5079546;28;20056;-66
2022/06/26 11:00:43;;;;;;;3.28;1.52;;;;;;;;;;5068598;28;20023;-66
2022/06/26 11:03:12;;;;;;;2.65;1.52;;;;;;;;;;5074773;28;20024;-66
2022/06/26 11:05:38;;;;;;;2.85;1.60;;;;;;;;;;5070691;28;20520;-66
2022/06/26 11:08:03;;;;;;;4.75;1.70;;;;;;;;;;5077411;28;20115;-66
2022/06/26 11:10:29;;;;;;;3.97;1.70;;;;;;;;;;5073750;28;20039;-67
2022/06/26 11:12:54;;;;;;;4.55;1.75;;;;;;;;;;5078989;28;20027;-67
2022/06/26 11:15:20;;;;;;;3.67;1.73;;;;;;;;;;5070912;28;20499;-66
2022/06/26 11:17:58;;;;;;;5.07;1.60;;;;;;;;;;5087257;28;20384;-66
2022/06/26 11:23:19;;;;;;;2.92;1.33;;;;;;;;;;5068514;28;20060;-66
2022/06/26 11:25:45;;;;;;;2.67;1.50;;;;;;;;;;5075383;28;20024;-67
2022/06/26 11:28:10;;;;;;;3.92;1.30;;;;;;;;;;5070439;28;20648;-66
2022/06/26 11:30:39;;;;;;;4.32;1.67;;;;;;;;;;5071250;28;20077;-66
2022/06/26 11:33:05;;;;;;;3.10;1.40;;;;;;;;;;5069315;28;20345;-66
2022/06/26 11:35:31;;;;;;;3.35;1.40;;;;;;;;;;5069360;28;20020;-66
2022/06/26 11:37:56;;;;;;;2.80;1.50;;;;;;;;;;5070358;28;20032;-66
2022/06/26 11:40:22;;;;;;;3.35;1.45;;;;;;;;;;5073569;28;20012;-66
2022/06/26 11:42:53;;;;;;;2.10;1.30;;;;;;;;;;5077919;28;20108;-66
2022/06/26 11:45:23;;;;;;;3.15;1.50;;;;;;;;;;5073772;28;20020;-66
2022/06/26 11:47:49;;;;;;;4.07;1.40;;;;;;;;;;5076337;28;20058;-66
2022/06/26 11:50:20;;;;;;;3.15;1.50;;;;;;;;;;5078853;28;20048;-67
2022/06/26 11:52:50;;;;;;;3.25;1.50;;;;;;;;;;5070326;28;20029;-66
2022/06/26 11:55:16;;;;;;;2.95;1.50;;;;;;;;;;5069005;28;20439;-67
2022/06/26 11:57:41;;;;;;;3.67;1.40;;;;;;;;;;5075837;28;20043;-67
2022/06/26 12:00:07;;;;;;;4.22;1.40;;;;;;;;;;5073770;28;20029;-67
2022/06/26 12:02:39;;;;;;;2.72;1.40;;;;;;;;;;5079571;28;20035;-66
2022/06/26 12:05:04;;;;;;;2.58;1.23;;;;;;;;;;5073821;28;20487;-66
2022/06/26 12:07:43;;;;;;;2.58;1.25;;;;;;;;;;5080374;28;20028;-66
2022/06/26 12:10:09;;;;;;;4.63;1.00;;;;;;;;;;5075616;28;20630;-66
2022/06/26 12:12:34;;;;;;;1.88;1.00;;;;;;;;;;5074848;28;20021;-66
2022/06/26 12:14:59;;;;;;;3.95;1.05;;;;;;;;;;5069130;28;20064;-66
2022/06/26 12:17:26;;;;;;;2.08;0.93;;;;;;;;;;5075554;28;20124;-66
2022/06/26 12:19:51;;;;;;;6.65;1.27;;;;;;;;;;5077184;28;20013;-65
2022/06/26 12:22:31;;;;;;;2.20;1.10;;;;;;;;;;5080934;28;20027;-66
2022/06/26 12:24:56;;;;;;;5.23;1.37;;;;;;;;;;5072950;28;20024;-66
2022/06/26 12:27:34;;;;;;;3.28;1.13;;;;;;;;;;5068330;28;20448;-66
2022/06/26 12:29:59;;;;;;;1.63;0.85;;;;;;;;;;5071473;28;20085;-66
2022/06/26 12:32:24;;;;;;;2.13;0.80;;;;;;;;;;5081416;28;20107;-66
2022/06/26 12:34:49;;;;;;;2.87;1.00;;;;;;;;;;5079403;28;20274;-66
2022/06/26 12:37:15;;;;;;;1.73;0.90;;;;;;;;;;5090398;28;20266;-66
2022/06/26 12:39:40;;;;;;;4.32;1.10;;;;;;;;;;5085515;28;20343;-66
2022/06/26 12:42:05;;;;;;;2.30;0.80;;;;;;;;;;5076472;28;20040;-66
2022/06/26 12:44:31;;;;;;;2.00;0.90;;;;;;;;;;5075540;28;20020;-66
2022/06/26 12:46:56;;;;;;;1.98;0.93;;;;;;;;;;5077121;28;20054;-66
2022/06/26 12:49:21;;;;;;;1.58;0.90;;;;;;;;;;5077682;28;20468;-66
2022/06/26 12:51:47;;;;;;;1.85;1.00;;;;;;;;;;5092957;28;20040;-67
2022/06/26 12:54:12;;;;;;;2.38;0.90;;;;;;;;;;5084206;28;20031;-67
2022/06/26 12:56:37;;;;;;;3.33;1.07;;;;;;;;;;5077231;28;20054;-66
2022/06/26 12:59:02;;;;;;;2.17;0.90;;;;;;;;;;5088448;28;20290;-66
2022/06/26 13:01:27;;;;;;;2.33;0.90;;;;;;;;;;5085215;28;20267;-66
2022/06/26 13:03:53;;;;;;;2.30;0.90;;;;;;;;;;5078138;28;20031;-66
2022/06/26 13:06:18;;;;;;;2.03;0.90;;;;;;;;;;5088626;28;20028;-66
2022/06/26 13:08:44;;;;;;;1.63;0.80;;;;;;;;;;5094000;28;20024;-66
2022/06/26 13:11:24;;;;;;;1.98;0.90;;;;;;;;;;5083497;28;20549;-66
2022/06/26 13:13:50;;;;;;;3.65;0.82;;;;;;;;;;5078561;28;20082;-66
2022/06/26 13:16:15;;;;;;;2.33;1.00;;;;;;;;;;5078644;28;20028;-66
2022/06/26 13:18:40;;;;;;;2.33;1.10;;;;;;;;;;5074117;28;20028;-66
2022/06/26 13:21:08;;;;;;;2.50;1.00;;;;;;;;;;5073754;28;20536;-66
2022/06/26 13:23:33;;;;;;;2.88;1.10;;;;;;;;;;5073631;28;20051;-66
2022/06/26 13:25:58;;;;;;;2.38;0.93;;;;;;;;;;5082588;28;20012;-66
2022/06/26 13:28:23;;;;;;;2.78;1.10;;;;;;;;;;5093865;28;20031;-67
2022/06/26 13:30:48;;;;;;;3.58;1.10;;;;;;;;;;5090320;28;20023;-66
2022/06/26 13:33:14;;;;;;;1.55;0.85;;;;;;;;;;5093812;28;20081;-66
2022/06/26 13:35:39;;;;;;;1.83;0.98;;;;;;;;;;5088442;28;20043;-66
2022/06/26 13:38:04;;;;;;;2.42;1.00;;;;;;;;;;5093809;28;20023;-66
2022/06/26 13:40:30;;;;;;;2.60;1.08;;;;;;;;;;5093527;28;20055;-66
2022/06/26 13:42:55;;;;;;;2.53;1.17;;;;;;;;;;5090449;28;20016;-66
2022/06/26 13:45:20;;;;;;;2.65;1.10;;;;;;;;;;5088907;28;20027;-66
2022/06/26 13:47:46;;;;;;;5.95;1.10;;;;;;;;;;5092314;28;20020;-67
2022/06/26 13:50:11;;;;;;;2.80;1.20;;;;;;;;;;5080293;28;20059;-66
2022/06/26 13:52:37;;;;;;;3.03;1.27;;;;;;;;;;5072989;28;20392;-66
2022/06/26 13:55:03;;;;;;;2.38;1.30;;;;;;;;;;5083360;28;20103;-66
2022/06/26 13:57:28;;;;;;;1.75;1.10;;;;;;;;;;5093108;28;20024;-66
2022/06/26 13:59:53;;;;;;;2.40;1.20;;;;;;;;;;5091757;28;20341;-66
2022/06/26 14:02:18;;;;;;;2.40;1.10;;;;;;;;;;5093347;28;20491;-66
2022/06/26 14:04:44;;;;;;;2.10;1.10;;;;;;;;;;5082457;28;20105;-66
2022/06/26 14:07:09;;;;;;;2.30;1.15;;;;;;;;;;5093371;28;20387;-66
2022/06/26 14:09:37;;;;;;;2.80;1.17;;;;;;;;;;5091811;28;20560;-66
2022/06/26 14:12:03;;;;;;;3.72;1.40;;;;;;;;;;5093322;28;20379;-66
2022/06/26 14:14:28;;;;;;;2.78;1.10;;;;;;;;;;5091116;28;20038;-66
2022/06/26 14:16:53;;;;;;;4.88;1.05;;;;;;;;;;5093230;28;20027;-66
2022/06/26 14:19:19;;;;;;;2.13;1.05;;;;;;;;;;5078638;28;20058;-66
2022/06/26 14:21:44;;;;;;;2.22;1.15;;;;;;;;;;5084240;28;20084;-66
2022/06/26 14:26:53;;;;;;;2.00;1.00;;;;;;;;;;5071866;28;20028;-66
2022/06/26 14:29:18;;;;;;;2.30;1.08;;;;;;;;;;5072395;28;20388;-66
2022/06/26 14:31:43;;;;;;;2.63;1.15;;;;;;;;;;5072057;28;20396;-66
2022/06/26 14:34:08;;;;;;;2.03;0.90;;;;;;;;;;5074538;28;20027;-66
2022/06/26 14:36:34;;;;;;;3.05;1.00;;;;;;;;;;5092083;28;20028;-66
2022/06/26 14:38:59;;;;;;;2.70;0.95;;;;;;;;;;5090878;28;20016;-66
2022/06/26 14:41:24;;;;;;;2.58;0.90;;;;;;;;;;5092284;28;20333;-67
2022/06/26 14:43:49;;;;;;;1.88;0.80;;;;;;;;;;5073802;28;20024;-66
2022/06/26 14:46:15;;;;;;;3.20;1.00;;;;;;;;;;5073141;28;20023;-67
2022/06/26 14:48:40;;;;;;;1.60;0.88;;;;;;;;;;5075581;28;20099;-66
2022/06/26 14:51:05;;;;;;;2.28;1.10;;;;;;;;;;5075797;28;20476;-66
2022/06/26 14:53:31;;;;;;;5.30;1.20;;;;;;;;;;5090490;28;20032;-66